sensor_id;sensor_type;location;lat;lon;timestamp;temperature;humidity
3542;DHT22;1785;47.388;8.538;2024-02-16T00:01:11;12.00;99.90
3542;DHT22;1785;47.388;8.538;2024-02-16T00:03:39;12.10;99.90
3542;DHT22;1785;47.388;8.538;2024-02-16T00:06:06;12.10;99.90
3542;DHT22;1785;47.388;8.538;2024-02-16T00:08:33;12.10;99.90
3542;DHT22;1785;47.388;8.538;2024-02-16T00:11:00;11.90;99.90
3542;DHT22;1785;47.388;8.538;2024-02-16T00:13:26;11.70;99.90
3542;DHT22;1785;47.388;8.538;2024-02-16T00:15:53;11.60;99.90
3542;DHT22;1785;47.388;8.538;2024-02-16T00:18:19;11.70;99.90
3542;DHT22;1785;47.388;8.538;2024-02-16T00:20:45;12.10;99.90
3542;DHT22;1785;47.388;8.538;2024-02-16T00:23:12;12.10;99.90
3542;DHT22;1785;47.388;8.538;2024-02-16T00:25:39;12.20;99.90
3542;DHT22;1785;47.388;8.538;2024-02-16T00:28:06;12.40;99.90
3542;DHT22;1785;47.388;8.538;2024-02-16T00:30:32;12.50;99.90
3542;DHT22;1785;47.388;8.538;2024-02-16T00:32:58;12.70;99.90
3542;DHT22;1785;47.388;8.538;2024-02-16T00:35:26;12.80;99.90
3542;DHT22;1785;47.388;8.538;2024-02-16T00:37:52;12.80;99.90
3542;DHT22;1785;47.388;8.538;2024-02-16T00:40:19;12.80;99.90
3542;DHT22;1785;47.388;8.538;2024-02-16T00:42:45;12.80;99.90
3542;DHT22;1785;47.388;8.538;2024-02-16T00:45:11;12.80;99.90
3542;DHT22;1785;47.388;8.538;2024-02-16T00:47:38;12.80;99.90
3542;DHT22;1785;47.388;8.538;2024-02-16T00:50:05;13.60;99.90
3542;DHT22;1785;47.388;8.538;2024-02-16T00:52:34;14.40;99.90
3542;DHT22;1785;47.388;8.538;2024-02-16T00:55:01;14.20;99.90
3542;DHT22;1785;47.388;8.538;2024-02-16T00:57:27;13.70;99.90
3542;DHT22;1785;47.388;8.538;2024-02-16T00:59:53;13.10;99.90
3542;DHT22;1785;47.388;8.538;2024-02-16T01:02:20;12.70;99.90
3542;DHT22;1785;47.388;8.538;2024-02-16T01:04:47;12.50;99.90
3542;DHT22;1785;47.388;8.538;2024-02-16T01:07:15;12.40;99.90
3542;DHT22;1785;47.388;8.538;2024-02-16T01:09:41;12.50;99.90
3542;DHT22;1785;47.388;8.538;2024-02-16T01:12:08;12.70;99.90
3542;DHT22;1785;47.388;8.538;2024-02-16T01:14:35;12.70;99.90
3542;DHT22;1785;47.388;8.538;2024-02-16T01:17:01;12.50;99.90
3542;DHT22;1785;47.388;8.538;2024-02-16T01:19:27;12.50;99.90
3542;DHT22;1785;47.388;8.538;2024-02-16T01:21:53;12.50;99.90
3542;DHT22;1785;47.388;8.538;2024-02-16T01:24:23;12.60;99.90
3542;DHT22;1785;47.388;8.538;2024-02-16T01:26:49;12.40;99.90
3542;DHT22;1785;47.388;8.538;2024-02-16T01:29:16;12.30;99.90
3542;DHT22;1785;47.388;8.538;2024-02-16T01:31:43;12.20;99.90
3542;DHT22;1785;47.388;8.538;2024-02-16T01:34:09;12.10;99.90
3542;DHT22;1785;47.388;8.538;2024-02-16T01:36:35;12.20;99.90
3542;DHT22;1785;47.388;8.538;2024-02-16T01:39:01;12.30;99.90
3542;DHT22;1785;47.388;8.538;2024-02-16T01:41:28;12.40;99.90
3542;DHT22;1785;47.388;8.538;2024-02-16T01:43:54;12.50;99.90
3542;DHT22;1785;47.388;8.538;2024-02-16T01:46:20;12.50;99.90
3542;DHT22;1785;47.388;8.538;2024-02-16T01:48:49;12.50;99.90
3542;DHT22;1785;47.388;8.538;2024-02-16T01:51:16;12.50;99.90
3542;DHT22;1785;47.388;8.538;2024-02-16T01:53:42;12.50;99.90
3542;DHT22;1785;47.388;8.538;2024-02-16T01:56:08;12.50;99.90
3542;DHT22;1785;47.388;8.538;2024-02-16T01:58:35;12.50;99.90
3542;DHT22;1785;47.388;8.538;2024-02-16T02:01:01;12.50;99.90
3542;DHT22;1785;47.388;8.538;2024-02-16T02:03:28;12.40;99.90
3542;DHT22;1785;47.388;8.538;2024-02-16T02:05:55;12.50;99.90
3542;DHT22;1785;47.388;8.538;2024-02-16T02:08:22;12.40;99.90
3542;DHT22;1785;47.388;8.538;2024-02-16T02:10:48;12.40;99.90
3542;DHT22;1785;47.388;8.538;2024-02-16T02:13:15;12.30;99.90
3542;DHT22;1785;47.388;8.538;2024-02-16T02:15:41;12.40;99.90
3542;DHT22;1785;47.388;8.538;2024-02-16T02:18:07;12.30;99.90
3542;DHT22;1785;47.388;8.538;2024-02-16T02:20:33;12.40;99.90
3542;DHT22;1785;47.388;8.538;2024-02-16T02:23:00;12.40;99.90
3542;DHT22;1785;47.388;8.538;2024-02-16T02:25:26;12.40;99.90
3542;DHT22;1785;47.388;8.538;2024-02-16T02:27:54;12.40;99.90
3542;DHT22;1785;47.388;8.538;2024-02-16T02:30:20;12.00;99.90
3542;DHT22;1785;47.388;8.538;2024-02-16T02:32:47;11.80;99.90
3542;DHT22;1785;47.388;8.538;2024-02-16T02:35:16;11.70;99.90
3542;DHT22;1785;47.388;8.538;2024-02-16T02:37:42;11.90;99.90
3542;DHT22;1785;47.388;8.538;2024-02-16T02:40:10;11.80;99.90
3542;DHT22;1785;47.388;8.538;2024-02-16T02:42:36;11.90;99.90
3542;DHT22;1785;47.388;8.538;2024-02-16T02:45:03;12.00;99.90
3542;DHT22;1785;47.388;8.538;2024-02-16T02:47:29;12.10;99.90
3542;DHT22;1785;47.388;8.538;2024-02-16T02:49:55;11.90;99.90
3542;DHT22;1785;47.388;8.538;2024-02-16T02:52:21;11.70;99.90
3542;DHT22;1785;47.388;8.538;2024-02-16T02:54:47;11.80;99.90
3542;DHT22;1785;47.388;8.538;2024-02-16T02:57:14;11.80;99.90
3542;DHT22;1785;47.388;8.538;2024-02-16T02:59:40;11.80;99.90
3542;DHT22;1785;47.388;8.538;2024-02-16T03:02:07;12.00;99.90
3542;DHT22;1785;47.388;8.538;2024-02-16T03:04:35;12.00;99.90
3542;DHT22;1785;47.388;8.538;2024-02-16T03:07:01;12.10;99.90
3542;DHT22;1785;47.388;8.538;2024-02-16T03:09:27;11.80;99.90
3542;DHT22;1785;47.388;8.538;2024-02-16T03:11:53;11.70;99.90
3542;DHT22;1785;47.388;8.538;2024-02-16T03:14:20;11.70;99.90
3542;DHT22;1785;47.388;8.538;2024-02-16T03:16:46;11.80;99.90
3542;DHT22;1785;47.388;8.538;2024-02-16T03:19:13;11.70;99.90
3542;DHT22;1785;47.388;8.538;2024-02-16T03:21:39;11.60;99.90
3542;DHT22;1785;47.388;8.538;2024-02-16T03:24:05;11.70;99.90
3542;DHT22;1785;47.388;8.538;2024-02-16T03:26:32;11.90;99.90
3542;DHT22;1785;47.388;8.538;2024-02-16T03:28:58;12.10;99.90
3542;DHT22;1785;47.388;8.538;2024-02-16T03:31:25;12.00;99.90
3542;DHT22;1785;47.388;8.538;2024-02-16T03:33:52;12.00;99.90
3542;DHT22;1785;47.388;8.538;2024-02-16T03:36:19;12.00;99.90
3542;DHT22;1785;47.388;8.538;2024-02-16T03:38:46;11.80;99.90
3542;DHT22;1785;47.388;8.538;2024-02-16T03:41:13;12.00;99.90
3542;DHT22;1785;47.388;8.538;2024-02-16T03:43:40;12.10;99.90
3542;DHT22;1785;47.388;8.538;2024-02-16T03:46:06;12.20;99.90
3542;DHT22;1785;47.388;8.538;2024-02-16T03:48:33;12.30;99.90
3542;DHT22;1785;47.388;8.538;2024-02-16T03:50:59;12.20;99.90
3542;DHT22;1785;47.388;8.538;2024-02-16T03:53:26;12.30;99.90
3542;DHT22;1785;47.388;8.538;2024-02-16T03:55:52;12.10;99.90
3542;DHT22;1785;47.388;8.538;2024-02-16T03:58:19;11.90;99.90
3542;DHT22;1785;47.388;8.538;2024-02-16T04:00:45;12.00;99.90
3542;DHT22;1785;47.388;8.538;2024-02-16T04:03:12;11.90;99.90
3542;DHT22;1785;47.388;8.538;2024-02-16T04:05:39;11.90;99.90
3542;DHT22;1785;47.388;8.538;2024-02-16T04:08:06;11.90;99.90
3542;DHT22;1785;47.388;8.538;2024-02-16T04:10:32;12.00;99.90
3542;DHT22;1785;47.388;8.538;2024-02-16T04:12:59;12.00;99.90
3542;DHT22;1785;47.388;8.538;2024-02-16T04:15:25;11.90;99.90
3542;DHT22;1785;47.388;8.538;2024-02-16T04:17:51;11.90;99.90
3542;DHT22;1785;47.388;8.538;2024-02-16T04:20:18;12.00;99.90
3542;DHT22;1785;47.388;8.538;2024-02-16T04:22:45;12.00;99.90
3542;DHT22;1785;47.388;8.538;2024-02-16T04:25:11;12.00;99.90
3542;DHT22;1785;47.388;8.538;2024-02-16T04:27:38;11.90;99.90
3542;DHT22;1785;47.388;8.538;2024-02-16T04:30:05;11.80;99.90
3542;DHT22;1785;47.388;8.538;2024-02-16T04:32:32;11.80;99.90
3542;DHT22;1785;47.388;8.538;2024-02-16T04:34:58;11.90;99.90
3542;DHT22;1785;47.388;8.538;2024-02-16T04:37:25;11.90;99.90
3542;DHT22;1785;47.388;8.538;2024-02-16T04:39:52;11.60;99.90
3542;DHT22;1785;47.388;8.538;2024-02-16T04:42:19;11.70;99.90
3542;DHT22;1785;47.388;8.538;2024-02-16T04:44:45;11.60;99.90
3542;DHT22;1785;47.388;8.538;2024-02-16T04:47:11;11.50;99.90
3542;DHT22;1785;47.388;8.538;2024-02-16T04:49:37;11.60;99.90
3542;DHT22;1785;47.388;8.538;2024-02-16T04:52:04;11.60;99.90
3542;DHT22;1785;47.388;8.538;2024-02-16T04:54:30;11.00;99.90
3542;DHT22;1785;47.388;8.538;2024-02-16T04:56:57;11.10;99.90
3542;DHT22;1785;47.388;8.538;2024-02-16T04:59:24;11.30;99.90
3542;DHT22;1785;47.388;8.538;2024-02-16T05:01:50;11.00;99.90
3542;DHT22;1785;47.388;8.538;2024-02-16T05:04:16;11.10;99.90
3542;DHT22;1785;47.388;8.538;2024-02-16T05:06:43;11.10;99.90
3542;DHT22;1785;47.388;8.538;2024-02-16T05:09:11;10.90;99.90
3542;DHT22;1785;47.388;8.538;2024-02-16T05:11:37;11.10;99.90
3542;DHT22;1785;47.388;8.538;2024-02-16T05:14:04;11.10;99.90
3542;DHT22;1785;47.388;8.538;2024-02-16T05:16:30;11.10;99.90
3542;DHT22;1785;47.388;8.538;2024-02-16T05:18:57;11.30;99.90
3542;DHT22;1785;47.388;8.538;2024-02-16T05:21:23;11.30;99.90
3542;DHT22;1785;47.388;8.538;2024-02-16T05:23:50;11.20;99.90
3542;DHT22;1785;47.388;8.538;2024-02-16T05:26:16;11.20;99.90
3542;DHT22;1785;47.388;8.538;2024-02-16T05:28:48;11.30;99.90
3542;DHT22;1785;47.388;8.538;2024-02-16T05:31:17;11.20;99.90
3542;DHT22;1785;47.388;8.538;2024-02-16T05:33:44;11.30;99.90
3542;DHT22;1785;47.388;8.538;2024-02-16T05:36:11;11.30;99.90
3542;DHT22;1785;47.388;8.538;2024-02-16T05:38:37;11.50;99.90
3542;DHT22;1785;47.388;8.538;2024-02-16T05:41:06;11.60;99.90
3542;DHT22;1785;47.388;8.538;2024-02-16T05:43:33;11.70;99.90
3542;DHT22;1785;47.388;8.538;2024-02-16T05:45:59;11.50;99.90
3542;DHT22;1785;47.388;8.538;2024-02-16T05:48:26;11.50;99.90
3542;DHT22;1785;47.388;8.538;2024-02-16T05:50:57;11.10;99.90
3542;DHT22;1785;47.388;8.538;2024-02-16T05:53:25;11.10;99.90
3542;DHT22;1785;47.388;8.538;2024-02-16T05:55:52;11.30;99.90
3542;DHT22;1785;47.388;8.538;2024-02-16T05:58:18;11.50;99.90
3542;DHT22;1785;47.388;8.538;2024-02-16T06:00:44;11.50;99.90
3542;DHT22;1785;47.388;8.538;2024-02-16T06:03:12;11.30;99.90
3542;DHT22;1785;47.388;8.538;2024-02-16T06:05:39;11.40;99.90
3542;DHT22;1785;47.388;8.538;2024-02-16T06:08:06;11.30;99.90
3542;DHT22;1785;47.388;8.538;2024-02-16T06:10:33;11.50;99.90
3542;DHT22;1785;47.388;8.538;2024-02-16T06:12:59;11.60;99.90
3542;DHT22;1785;47.388;8.538;2024-02-16T06:15:25;11.70;99.90
3542;DHT22;1785;47.388;8.538;2024-02-16T06:17:52;11.70;99.90
3542;DHT22;1785;47.388;8.538;2024-02-16T06:20:19;11.50;99.90
3542;DHT22;1785;47.388;8.538;2024-02-16T06:22:46;11.40;99.90
3542;DHT22;1785;47.388;8.538;2024-02-16T06:25:12;11.60;99.90
3542;DHT22;1785;47.388;8.538;2024-02-16T06:27:38;11.80;99.90
3542;DHT22;1785;47.388;8.538;2024-02-16T06:30:05;11.80;99.90
3542;DHT22;1785;47.388;8.538;2024-02-16T06:32:33;11.90;99.90
3542;DHT22;1785;47.388;8.538;2024-02-16T06:34:59;11.60;99.90
3542;DHT22;1785;47.388;8.538;2024-02-16T06:37:25;11.30;99.90
3542;DHT22;1785;47.388;8.538;2024-02-16T06:39:52;11.50;99.90
3542;DHT22;1785;47.388;8.538;2024-02-16T06:42:19;11.70;99.90
3542;DHT22;1785;47.388;8.538;2024-02-16T06:44:45;11.80;99.90
3542;DHT22;1785;47.388;8.538;2024-02-16T06:47:11;11.80;99.90
3542;DHT22;1785;47.388;8.538;2024-02-16T06:49:37;11.90;99.90
3542;DHT22;1785;47.388;8.538;2024-02-16T06:52:04;11.90;99.90
3542;DHT22;1785;47.388;8.538;2024-02-16T06:54:31;12.80;99.90
3542;DHT22;1785;47.388;8.538;2024-02-16T06:56:58;13.60;99.90
3542;DHT22;1785;47.388;8.538;2024-02-16T06:59:24;14.20;99.90
3542;DHT22;1785;47.388;8.538;2024-02-16T07:01:50;14.70;99.90
3542;DHT22;1785;47.388;8.538;2024-02-16T07:04:16;15.10;99.90
3542;DHT22;1785;47.388;8.538;2024-02-16T07:06:43;14.90;99.90
3542;DHT22;1785;47.388;8.538;2024-02-16T07:09:09;15.10;99.90
3542;DHT22;1785;47.388;8.538;2024-02-16T07:11:35;15.50;99.90
3542;DHT22;1785;47.388;8.538;2024-02-16T07:14:02;15.70;99.90
3542;DHT22;1785;47.388;8.538;2024-02-16T07:16:29;16.00;99.90
3542;DHT22;1785;47.388;8.538;2024-02-16T07:18:58;15.90;99.90
3542;DHT22;1785;47.388;8.538;2024-02-16T07:21:24;16.00;99.90
3542;DHT22;1785;47.388;8.538;2024-02-16T07:23:52;16.10;99.90
3542;DHT22;1785;47.388;8.538;2024-02-16T07:26:18;16.30;99.90
3542;DHT22;1785;47.388;8.538;2024-02-16T07:28:44;16.30;99.90
3542;DHT22;1785;47.388;8.538;2024-02-16T07:31:12;16.40;99.90
3542;DHT22;1785;47.388;8.538;2024-02-16T07:33:39;16.40;99.90
3542;DHT22;1785;47.388;8.538;2024-02-16T07:36:06;16.40;99.90
3542;DHT22;1785;47.388;8.538;2024-02-16T07:38:33;16.20;99.90
3542;DHT22;1785;47.388;8.538;2024-02-16T07:40:59;15.80;99.90
3542;DHT22;1785;47.388;8.538;2024-02-16T07:43:26;15.10;99.90
3542;DHT22;1785;47.388;8.538;2024-02-16T07:45:52;14.60;99.90
3542;DHT22;1785;47.388;8.538;2024-02-16T07:48:20;13.90;99.90
3542;DHT22;1785;47.388;8.538;2024-02-16T07:50:46;13.50;99.90
3542;DHT22;1785;47.388;8.538;2024-02-16T07:53:13;12.80;99.90
3542;DHT22;1785;47.388;8.538;2024-02-16T07:55:39;12.30;99.90
3542;DHT22;1785;47.388;8.538;2024-02-16T07:58:06;12.30;99.90
3542;DHT22;1785;47.388;8.538;2024-02-16T08:00:32;12.30;99.90
3542;DHT22;1785;47.388;8.538;2024-02-16T08:02:58;12.30;99.90
3542;DHT22;1785;47.388;8.538;2024-02-16T08:05:25;12.50;99.90
3542;DHT22;1785;47.388;8.538;2024-02-16T08:07:52;12.40;99.90
3542;DHT22;1785;47.388;8.538;2024-02-16T08:10:19;12.30;99.90
3542;DHT22;1785;47.388;8.538;2024-02-16T08:12:46;12.30;99.90
3542;DHT22;1785;47.388;8.538;2024-02-16T08:15:13;12.40;99.90
3542;DHT22;1785;47.388;8.538;2024-02-16T08:17:39;12.40;99.90
3542;DHT22;1785;47.388;8.538;2024-02-16T08:20:07;12.40;99.90
3542;DHT22;1785;47.388;8.538;2024-02-16T08:22:34;12.30;99.90
3542;DHT22;1785;47.388;8.538;2024-02-16T08:25:01;12.50;99.90
3542;DHT22;1785;47.388;8.538;2024-02-16T08:27:28;12.70;99.90
3542;DHT22;1785;47.388;8.538;2024-02-16T08:29:55;12.70;99.90
3542;DHT22;1785;47.388;8.538;2024-02-16T08:32:21;12.80;99.90
3542;DHT22;1785;47.388;8.538;2024-02-16T08:34:47;12.60;99.90
3542;DHT22;1785;47.388;8.538;2024-02-16T08:37:16;12.80;99.90
3542;DHT22;1785;47.388;8.538;2024-02-16T08:39:43;12.90;99.90
3542;DHT22;1785;47.388;8.538;2024-02-16T08:42:09;13.00;99.90
3542;DHT22;1785;47.388;8.538;2024-02-16T08:44:37;13.10;99.90
3542;DHT22;1785;47.388;8.538;2024-02-16T08:47:04;13.20;99.90
3542;DHT22;1785;47.388;8.538;2024-02-16T08:49:30;13.20;99.90
3542;DHT22;1785;47.388;8.538;2024-02-16T08:51:57;13.30;99.90
3542;DHT22;1785;47.388;8.538;2024-02-16T08:54:23;13.30;99.90
3542;DHT22;1785;47.388;8.538;2024-02-16T08:56:50;13.40;99.90
3542;DHT22;1785;47.388;8.538;2024-02-16T08:59:17;13.40;99.90
3542;DHT22;1785;47.388;8.538;2024-02-16T09:01:43;13.30;99.90
3542;DHT22;1785;47.388;8.538;2024-02-16T09:04:09;13.50;99.90
3542;DHT22;1785;47.388;8.538;2024-02-16T09:06:35;13.50;99.90
3542;DHT22;1785;47.388;8.538;2024-02-16T09:09:02;13.50;99.90
3542;DHT22;1785;47.388;8.538;2024-02-16T09:11:28;13.60;99.90
3542;DHT22;1785;47.388;8.538;2024-02-16T09:13:55;13.60;99.90
3542;DHT22;1785;47.388;8.538;2024-02-16T09:16:21;13.60;99.90
3542;DHT22;1785;47.388;8.538;2024-02-16T09:18:47;13.80;99.90
3542;DHT22;1785;47.388;8.538;2024-02-16T09:21:14;13.80;99.90
3542;DHT22;1785;47.388;8.538;2024-02-16T09:23:40;13.80;99.90
3542;DHT22;1785;47.388;8.538;2024-02-16T09:26:06;13.80;99.90
3542;DHT22;1785;47.388;8.538;2024-02-16T09:28:39;13.80;99.90
3542;DHT22;1785;47.388;8.538;2024-02-16T09:31:07;13.90;99.90
3542;DHT22;1785;47.388;8.538;2024-02-16T09:33:35;13.90;99.90
3542;DHT22;1785;47.388;8.538;2024-02-16T09:36:01;14.10;99.90
3542;DHT22;1785;47.388;8.538;2024-02-16T09:38:27;14.20;99.90
3542;DHT22;1785;47.388;8.538;2024-02-16T09:40:53;13.70;99.90
3542;DHT22;1785;47.388;8.538;2024-02-16T09:43:24;13.20;99.90
3542;DHT22;1785;47.388;8.538;2024-02-16T09:45:53;13.10;99.90
3542;DHT22;1785;47.388;8.538;2024-02-16T09:48:21;13.30;99.90
3542;DHT22;1785;47.388;8.538;2024-02-16T09:50:48;13.20;99.90
3542;DHT22;1785;47.388;8.538;2024-02-16T09:53:15;13.20;99.90
3542;DHT22;1785;47.388;8.538;2024-02-16T09:55:43;13.20;99.90
3542;DHT22;1785;47.388;8.538;2024-02-16T09:58:09;13.30;99.90
3542;DHT22;1785;47.388;8.538;2024-02-16T10:00:42;13.70;99.90
3542;DHT22;1785;47.388;8.538;2024-02-16T10:03:08;13.70;99.90
3542;DHT22;1785;47.388;8.538;2024-02-16T10:05:36;13.80;99.90
3542;DHT22;1785;47.388;8.538;2024-02-16T10:08:11;14.10;99.90
3542;DHT22;1785;47.388;8.538;2024-02-16T10:10:38;14.30;99.90
3542;DHT22;1785;47.388;8.538;2024-02-16T10:13:05;14.30;99.90
3542;DHT22;1785;47.388;8.538;2024-02-16T10:15:31;14.20;99.90
3542;DHT22;1785;47.388;8.538;2024-02-16T10:17:58;14.00;99.90
3542;DHT22;1785;47.388;8.538;2024-02-16T10:20:25;13.90;99.90
3542;DHT22;1785;47.388;8.538;2024-02-16T10:23:03;14.00;99.90
3542;DHT22;1785;47.388;8.538;2024-02-16T10:25:29;14.20;99.90
3542;DHT22;1785;47.388;8.538;2024-02-16T10:27:57;14.40;99.90
3542;DHT22;1785;47.388;8.538;2024-02-16T10:30:26;14.50;99.90
3542;DHT22;1785;47.388;8.538;2024-02-16T10:32:54;14.50;99.90
3542;DHT22;1785;47.388;8.538;2024-02-16T10:35:21;14.60;99.90
3542;DHT22;1785;47.388;8.538;2024-02-16T10:37:50;14.50;99.90
3542;DHT22;1785;47.388;8.538;2024-02-16T10:40:18;14.40;99.90
3542;DHT22;1785;47.388;8.538;2024-02-16T10:42:45;14.50;99.90
3542;DHT22;1785;47.388;8.538;2024-02-16T10:45:12;14.30;99.90
3542;DHT22;1785;47.388;8.538;2024-02-16T10:47:39;14.30;99.90
3542;DHT22;1785;47.388;8.538;2024-02-16T10:50:06;14.30;99.90
3542;DHT22;1785;47.388;8.538;2024-02-16T10:52:34;14.40;99.90
3542;DHT22;1785;47.388;8.538;2024-02-16T10:55:03;14.30;99.90
3542;DHT22;1785;47.388;8.538;2024-02-16T10:57:31;14.30;99.90
3542;DHT22;1785;47.388;8.538;2024-02-16T10:59:59;14.60;99.90
3542;DHT22;1785;47.388;8.538;2024-02-16T11:02:25;14.70;99.90
3542;DHT22;1785;47.388;8.538;2024-02-16T11:04:52;14.90;99.90
3542;DHT22;1785;47.388;8.538;2024-02-16T11:07:19;15.10;99.90
3542;DHT22;1785;47.388;8.538;2024-02-16T11:09:46;14.90;99.90
3542;DHT22;1785;47.388;8.538;2024-02-16T11:12:14;15.10;99.90
3542;DHT22;1785;47.388;8.538;2024-02-16T11:14:42;15.30;99.90
3542;DHT22;1785;47.388;8.538;2024-02-16T11:17:10;15.50;99.90
3542;DHT22;1785;47.388;8.538;2024-02-16T11:19:36;15.40;99.90
3542;DHT22;1785;47.388;8.538;2024-02-16T11:22:04;15.30;99.90
3542;DHT22;1785;47.388;8.538;2024-02-16T11:24:33;15.20;99.90
3542;DHT22;1785;47.388;8.538;2024-02-16T11:27:02;15.00;99.90
3542;DHT22;1785;47.388;8.538;2024-02-16T11:29:31;15.20;99.90
3542;DHT22;1785;47.388;8.538;2024-02-16T11:32:00;15.30;99.90
3542;DHT22;1785;47.388;8.538;2024-02-16T11:34:26;15.50;99.90
3542;DHT22;1785;47.388;8.538;2024-02-16T11:36:54;15.70;99.90
3542;DHT22;1785;47.388;8.538;2024-02-16T11:39:20;15.50;99.90
3542;DHT22;1785;47.388;8.538;2024-02-16T11:41:47;15.40;99.90
3542;DHT22;1785;47.388;8.538;2024-02-16T11:44:13;15.30;99.90
3542;DHT22;1785;47.388;8.538;2024-02-16T11:46:42;15.30;99.90
3542;DHT22;1785;47.388;8.538;2024-02-16T11:49:08;15.70;99.90
3542;DHT22;1785;47.388;8.538;2024-02-16T11:51:35;16.20;99.90
3542;DHT22;1785;47.388;8.538;2024-02-16T11:54:02;16.30;99.90
3542;DHT22;1785;47.388;8.538;2024-02-16T11:56:28;16.60;99.90
3542;DHT22;1785;47.388;8.538;2024-02-16T11:58:55;16.60;99.90
3542;DHT22;1785;47.388;8.538;2024-02-16T12:01:22;16.40;99.90
3542;DHT22;1785;47.388;8.538;2024-02-16T12:03:48;16.00;99.90
3542;DHT22;1785;47.388;8.538;2024-02-16T12:06:20;16.20;99.90
3542;DHT22;1785;47.388;8.538;2024-02-16T12:08:47;16.20;99.90
3542;DHT22;1785;47.388;8.538;2024-02-16T12:11:13;16.30;99.90
3542;DHT22;1785;47.388;8.538;2024-02-16T12:13:40;16.20;99.90
3542;DHT22;1785;47.388;8.538;2024-02-16T12:16:06;16.10;99.90
3542;DHT22;1785;47.388;8.538;2024-02-16T12:18:33;15.90;99.90
3542;DHT22;1785;47.388;8.538;2024-02-16T12:21:00;15.80;99.90
3542;DHT22;1785;47.388;8.538;2024-02-16T12:23:27;16.00;99.90
3542;DHT22;1785;47.388;8.538;2024-02-16T12:25:53;16.20;99.90
3542;DHT22;1785;47.388;8.538;2024-02-16T12:28:23;16.50;99.90
3542;DHT22;1785;47.388;8.538;2024-02-16T12:30:50;16.70;99.90
3542;DHT22;1785;47.388;8.538;2024-02-16T12:33:16;16.40;99.90
3542;DHT22;1785;47.388;8.538;2024-02-16T12:35:42;16.30;99.90
3542;DHT22;1785;47.388;8.538;2024-02-16T12:38:08;16.20;99.90
3542;DHT22;1785;47.388;8.538;2024-02-16T12:40:35;16.00;99.90
3542;DHT22;1785;47.388;8.538;2024-02-16T12:43:01;16.10;99.90
3542;DHT22;1785;47.388;8.538;2024-02-16T12:45:28;16.30;99.90
3542;DHT22;1785;47.388;8.538;2024-02-16T12:47:54;16.40;99.90
3542;DHT22;1785;47.388;8.538;2024-02-16T12:50:20;16.60;99.90
3542;DHT22;1785;47.388;8.538;2024-02-16T12:52:46;16.60;99.90
3542;DHT22;1785;47.388;8.538;2024-02-16T12:55:12;16.90;99.90
3542;DHT22;1785;47.388;8.538;2024-02-16T12:57:40;16.80;99.90
3542;DHT22;1785;47.388;8.538;2024-02-16T13:00:10;16.70;99.90
3542;DHT22;1785;47.388;8.538;2024-02-16T13:02:37;16.60;99.90
3542;DHT22;1785;47.388;8.538;2024-02-16T13:05:04;16.20;99.90
3542;DHT22;1785;47.388;8.538;2024-02-16T13:07:31;16.00;99.90
3542;DHT22;1785;47.388;8.538;2024-02-16T13:09:57;16.10;99.90
3542;DHT22;1785;47.388;8.538;2024-02-16T13:12:23;16.10;99.90
3542;DHT22;1785;47.388;8.538;2024-02-16T13:14:50;16.20;99.90
3542;DHT22;1785;47.388;8.538;2024-02-16T13:17:16;16.50;99.90
3542;DHT22;1785;47.388;8.538;2024-02-16T13:19:43;16.90;99.90
3542;DHT22;1785;47.388;8.538;2024-02-16T13:22:10;16.70;99.90
3542;DHT22;1785;47.388;8.538;2024-02-16T13:24:36;16.70;99.90
3542;DHT22;1785;47.388;8.538;2024-02-16T13:27:02;16.70;99.90
3542;DHT22;1785;47.388;8.538;2024-02-16T13:29:29;16.90;99.90
3542;DHT22;1785;47.388;8.538;2024-02-16T13:31:56;16.60;99.90
3542;DHT22;1785;47.388;8.538;2024-02-16T13:34:22;16.40;99.90
3542;DHT22;1785;47.388;8.538;2024-02-16T13:36:50;16.40;99.90
3542;DHT22;1785;47.388;8.538;2024-02-16T13:39:16;16.50;99.90
3542;DHT22;1785;47.388;8.538;2024-02-16T13:41:45;16.70;99.90
3542;DHT22;1785;47.388;8.538;2024-02-16T13:44:14;16.70;99.90
3542;DHT22;1785;47.388;8.538;2024-02-16T13:46:40;16.70;99.90
3542;DHT22;1785;47.388;8.538;2024-02-16T13:49:07;16.60;99.90
3542;DHT22;1785;47.388;8.538;2024-02-16T13:51:33;16.60;99.90
3542;DHT22;1785;47.388;8.538;2024-02-16T13:54:00;16.80;99.90
3542;DHT22;1785;47.388;8.538;2024-02-16T13:56:26;16.80;99.90
3542;DHT22;1785;47.388;8.538;2024-02-16T13:58:52;16.70;99.90
3542;DHT22;1785;47.388;8.538;2024-02-16T14:01:18;16.80;99.90
3542;DHT22;1785;47.388;8.538;2024-02-16T14:03:44;17.00;99.90
3542;DHT22;1785;47.388;8.538;2024-02-16T14:06:11;17.10;99.90
3542;DHT22;1785;47.388;8.538;2024-02-16T14:08:37;17.30;99.90
3542;DHT22;1785;47.388;8.538;2024-02-16T14:11:04;17.40;99.90
3542;DHT22;1785;47.388;8.538;2024-02-16T14:13:30;17.40;99.90
3542;DHT22;1785;47.388;8.538;2024-02-16T14:15:56;17.50;99.90
3542;DHT22;1785;47.388;8.538;2024-02-16T14:18:22;17.50;99.90
3542;DHT22;1785;47.388;8.538;2024-02-16T14:20:48;17.40;99.90
3542;DHT22;1785;47.388;8.538;2024-02-16T14:23:15;17.40;99.90
3542;DHT22;1785;47.388;8.538;2024-02-16T14:25:41;17.10;99.90
3542;DHT22;1785;47.388;8.538;2024-02-16T14:28:08;17.40;99.90
3542;DHT22;1785;47.388;8.538;2024-02-16T14:30:34;17.30;99.90
3542;DHT22;1785;47.388;8.538;2024-02-16T14:33:00;17.40;99.90
3542;DHT22;1785;47.388;8.538;2024-02-16T14:35:30;17.50;99.90
3542;DHT22;1785;47.388;8.538;2024-02-16T14:37:57;17.40;99.90
3542;DHT22;1785;47.388;8.538;2024-02-16T14:40:24;17.20;99.90
3542;DHT22;1785;47.388;8.538;2024-02-16T14:42:51;17.20;99.90
3542;DHT22;1785;47.388;8.538;2024-02-16T14:45:17;17.30;99.90
3542;DHT22;1785;47.388;8.538;2024-02-16T14:47:46;17.20;99.90
3542;DHT22;1785;47.388;8.538;2024-02-16T14:50:12;17.10;99.90
3542;DHT22;1785;47.388;8.538;2024-02-16T14:52:39;17.20;99.90
3542;DHT22;1785;47.388;8.538;2024-02-16T14:55:06;17.00;99.90
3542;DHT22;1785;47.388;8.538;2024-02-16T14:57:36;16.70;99.90
3542;DHT22;1785;47.388;8.538;2024-02-16T15:00:03;16.50;99.90
3542;DHT22;1785;47.388;8.538;2024-02-16T15:02:29;16.40;99.90
3542;DHT22;1785;47.388;8.538;2024-02-16T15:04:55;16.60;99.90
3542;DHT22;1785;47.388;8.538;2024-02-16T15:07:22;16.30;99.90
3542;DHT22;1785;47.388;8.538;2024-02-16T15:09:48;16.30;99.90
3542;DHT22;1785;47.388;8.538;2024-02-16T15:12:14;16.10;99.90
3542;DHT22;1785;47.388;8.538;2024-02-16T15:14:45;16.30;99.90
3542;DHT22;1785;47.388;8.538;2024-02-16T15:17:12;16.10;99.90
3542;DHT22;1785;47.388;8.538;2024-02-16T15:19:39;16.20;99.90
3542;DHT22;1785;47.388;8.538;2024-02-16T15:22:05;16.30;99.90
3542;DHT22;1785;47.388;8.538;2024-02-16T15:24:32;16.50;99.90
3542;DHT22;1785;47.388;8.538;2024-02-16T15:26:58;16.90;99.90
3542;DHT22;1785;47.388;8.538;2024-02-16T15:29:24;17.10;99.90
3542;DHT22;1785;47.388;8.538;2024-02-16T15:31:51;17.00;99.90
3542;DHT22;1785;47.388;8.538;2024-02-16T15:34:18;17.10;99.90
3542;DHT22;1785;47.388;8.538;2024-02-16T15:36:44;16.60;99.90
3542;DHT22;1785;47.388;8.538;2024-02-16T15:39:10;16.30;99.90
3542;DHT22;1785;47.388;8.538;2024-02-16T15:41:37;16.40;99.90
3542;DHT22;1785;47.388;8.538;2024-02-16T15:44:04;16.30;99.90
3542;DHT22;1785;47.388;8.538;2024-02-16T15:46:30;16.30;99.90
3542;DHT22;1785;47.388;8.538;2024-02-16T15:48:57;16.40;99.90
3542;DHT22;1785;47.388;8.538;2024-02-16T15:51:23;16.30;99.90
3542;DHT22;1785;47.388;8.538;2024-02-16T15:53:50;16.10;99.90
3542;DHT22;1785;47.388;8.538;2024-02-16T15:56:16;16.20;99.90
3542;DHT22;1785;47.388;8.538;2024-02-16T15:58:42;16.00;99.90